ΕΜΥ, Εθνική Μετεωρολογική Υπηρεσία - Δελτία Καιρού, Προγνώσεις

ΑΕΡΟΝΑΥΤΙΛΙΑ

GREEK AIRPORTS CODES

LGLR 270820Z 22013KT 9999 SCT035 BKN080 15/06 Q1005=

EUROPEAN AIRPORTS CODES

LFPO 270800Z 16014KT 130V190 3000 -RA BR BKN005 OVC011 04/03Q0995 RERA TEMPO 1200 RA=